Time;durP1;ratioP1;P1;durP2;ratioP2;P2;SDS_P1;SDS_P2;PMS_P1;PMS_P2;Temp;Humidity;BMP_temperature;BMP_pressure;BME280_temperature;BME280_humidity;BME280_pressure;Samples;Min_cycle;Max_cycle;Signal;HPM_P1;HPM_P2
2020/12/19 00:00:08;;;;;;;16.57;14.33;;;;;;;1.50;100.00;98635.94;5006248;28;20584;-75
2020/12/19 00:02:37;;;;;;;16.93;13.93;;;;;;;1.57;100.00;98639.88;4978981;28;20597;-73
2020/12/19 00:05:05;;;;;;;16.23;14.23;;;;;;;1.41;100.00;98644.31;4976585;28;20425;-74
2020/12/19 00:07:33;;;;;;;17.90;15.67;;;;;;;1.38;100.00;98641.88;5010872;28;20223;-74
2020/12/19 00:10:00;;;;;;;18.40;16.07;;;;;;;1.34;100.00;98650.81;4991057;28;20227;-74
2020/12/19 00:12:27;;;;;;;19.07;15.33;;;;;;;1.35;100.00;98642.06;5006877;28;20220;-76
2020/12/19 00:14:54;;;;;;;17.37;15.40;;;;;;;1.51;100.00;98637.59;5003395;28;20205;-76
2020/12/19 00:17:21;;;;;;;15.80;13.73;;;;;;;1.49;100.00;98636.03;4983245;28;20233;-75
2020/12/19 00:19:49;;;;;;;17.23;14.53;;;;;;;1.59;100.00;98632.78;5003800;28;20322;-74
2020/12/19 00:22:20;;;;;;;16.13;13.63;;;;;;;1.52;100.00;98631.47;4984534;28;20212;-75
2020/12/19 00:24:48;;;;;;;16.13;14.00;;;;;;;1.42;100.00;98631.19;4997545;28;20613;-76
2020/12/19 00:27:15;;;;;;;15.70;13.33;;;;;;;1.25;100.00;98626.94;4995063;28;20237;-75
2020/12/19 00:29:43;;;;;;;17.23;13.90;;;;;;;1.27;100.00;98629.44;4995882;28;20664;-74
2020/12/19 00:32:11;;;;;;;15.30;13.70;;;;;;;1.37;100.00;98630.59;4985158;28;20209;-76
2020/12/19 00:34:53;;;;;;;15.83;13.37;;;;;;;1.46;100.00;98625.78;4998397;28;20371;-76
2020/12/19 00:37:20;;;;;;;15.77;13.60;;;;;;;1.45;100.00;98622.31;4978546;28;20275;-75
2020/12/19 00:39:48;;;;;;;15.50;13.83;;;;;;;1.42;100.00;98623.34;5006341;28;20442;-74
2020/12/19 00:42:15;;;;;;;14.63;12.50;;;;;;;1.48;100.00;98627.34;4996645;28;20236;-76
2020/12/19 00:44:42;;;;;;;15.77;13.70;;;;;;;1.34;100.00;98620.34;5001482;28;20680;-74
2020/12/19 00:47:09;;;;;;;17.43;14.20;;;;;;;1.47;100.00;98622.22;4980818;28;20236;-76
2020/12/19 00:49:36;;;;;;;16.10;12.57;;;;;;;1.41;100.00;98615.59;5000071;28;20204;-74
2020/12/19 00:52:04;;;;;;;16.20;13.97;;;;;;;1.42;100.00;98614.66;4975580;28;20857;-76
2020/12/19 00:54:31;;;;;;;18.20;14.70;;;;;;;1.38;100.00;98616.63;5010403;28;20215;-75
2020/12/19 00:56:58;;;;;;;16.57;14.13;;;;;;;1.31;100.00;98623.09;4993462;28;20696;-75
2020/12/19 00:59:30;;;;;;;16.27;12.80;;;;;;;1.46;100.00;98610.09;5002915;28;20701;-74
2020/12/19 01:01:57;;;;;;;16.80;13.90;;;;;;;1.37;100.00;98614.94;5005257;28;20429;-75
2020/12/19 01:04:24;;;;;;;16.80;13.73;;;;;;;1.42;100.00;98612.03;4978883;28;20216;-76
2020/12/19 01:06:51;;;;;;;15.90;13.10;;;;;;;1.55;100.00;98610.41;4993213;28;20710;-75
2020/12/19 01:09:19;;;;;;;15.57;13.80;;;;;;;1.57;100.00;98610.28;4983889;28;20212;-74
2020/12/19 01:11:46;;;;;;;14.83;13.30;;;;;;;1.38;100.00;98607.94;5002066;28;20596;-74
2020/12/19 01:14:13;;;;;;;14.23;12.70;;;;;;;1.40;100.00;98614.75;4992801;28;20307;-76
2020/12/19 01:16:40;;;;;;;16.43;13.47;;;;;;;1.48;100.00;98608.22;5005856;28;20554;-74
2020/12/19 01:19:07;;;;;;;14.40;12.90;;;;;;;1.25;100.00;98602.59;4974981;28;20221;-75
2020/12/19 01:21:34;;;;;;;17.07;14.07;;;;;;;1.27;100.00;98606.78;5006823;28;20212;-74
2020/12/19 01:24:02;;;;;;;17.23;13.80;;;;;;;1.25;100.00;98606.03;4973611;28;20611;-75
2020/12/19 01:26:29;;;;;;;15.10;13.60;;;;;;;1.28;100.00;98615.47;4994434;28;20303;-74
2020/12/19 01:28:56;;;;;;;18.07;13.47;;;;;;;1.34;100.00;98609.91;4986689;28;20329;-75
2020/12/19 01:31:23;;;;;;;16.33;13.60;;;;;;;1.13;100.00;98601.53;5006208;28;20469;-76
2020/12/19 01:33:51;;;;;;;16.23;14.43;;;;;;;1.15;100.00;98608.34;4981383;28;21029;-75
2020/12/19 01:36:21;;;;;;;15.97;12.93;;;;;;;1.28;100.00;98603.25;5011718;28;20208;-75
2020/12/19 01:38:48;;;;;;;15.67;13.23;;;;;;;1.18;100.00;98601.25;4973752;28;20811;-74
2020/12/19 01:41:16;;;;;;;16.07;14.30;;;;;;;1.11;100.00;98591.19;4999074;28;20205;-76
2020/12/19 01:43:49;;;;;;;16.07;13.33;;;;;;;1.13;100.00;98593.69;4989245;28;20204;-73
2020/12/19 01:46:40;;;;;;;15.67;13.97;;;;;;;1.05;100.00;98588.09;5002700;28;20231;-75
2020/12/19 01:49:07;;;;;;;15.93;13.00;;;;;;;1.06;100.00;98590.63;4978880;28;20275;-75
2020/12/19 01:51:34;;;;;;;14.57;12.90;;;;;;;1.06;100.00;98582.78;5009175;28;20680;-73
2020/12/19 01:54:01;;;;;;;17.83;13.70;;;;;;;1.01;100.00;98590.03;4997705;28;20427;-75
2020/12/19 01:56:42;;;;;;;14.63;12.67;;;;;;;1.06;100.00;98588.00;4977237;28;20219;-73
2020/12/19 01:59:10;;;;;;;16.37;14.60;;;;;;;1.01;100.00;98584.81;4998154;28;20235;-75
2020/12/19 02:01:42;;;;;;;18.03;14.10;;;;;;;0.97;100.00;98578.94;4991384;28;20263;-73
2020/12/19 02:04:09;;;;;;;15.20;13.17;;;;;;;1.00;100.00;98572.69;5001641;28;20703;-75
2020/12/19 02:06:37;;;;;;;15.33;13.47;;;;;;;1.11;100.00;98572.91;4979097;28;20216;-73
2020/12/19 02:09:04;;;;;;;16.97;13.20;;;;;;;1.02;100.00;98576.06;4999688;28;20538;-74
2020/12/19 02:11:32;;;;;;;17.53;13.13;;;;;;;0.95;100.00;98570.34;4973402;28;20390;-73
2020/12/19 02:13:59;;;;;;;15.53;12.63;;;;;;;0.90;100.00;98564.56;4994959;28;20201;-74
2020/12/19 02:16:26;;;;;;;16.37;13.60;;;;;;;0.84;100.00;98568.34;4989308;28;20217;-75
2020/12/19 02:18:53;;;;;;;16.20;13.77;;;;;;;0.94;100.00;98562.59;4999388;28;20833;-75
2020/12/19 02:21:21;;;;;;;17.87;14.27;;;;;;;0.90;100.00;98568.91;4981728;28;20213;-74
2020/12/19 02:23:49;;;;;;;15.57;13.47;;;;;;;0.84;100.00;98567.53;5004485;28;20208;-75
2020/12/19 02:26:17;;;;;;;14.77;12.57;;;;;;;0.94;100.00;98579.09;4974242;28;20331;-75
2020/12/19 02:28:44;;;;;;;15.37;12.13;;;;;;;1.01;100.00;98575.22;4999646;28;20326;-73
2020/12/19 02:31:11;;;;;;;14.70;12.97;;;;;;;1.13;100.00;98576.28;4993130;28;20431;-75
2020/12/19 02:33:38;;;;;;;17.33;13.30;;;;;;;1.09;100.00;98572.16;5012073;28;20219;-73
2020/12/19 02:36:07;;;;;;;14.73;12.13;;;;;;;1.15;100.00;98571.78;5026368;28;20209;-75
2020/12/19 02:38:34;;;;;;;14.60;12.20;;;;;;;1.24;100.00;98561.72;4993221;28;20224;-73
2020/12/19 02:41:02;;;;;;;14.03;12.20;;;;;;;1.34;100.00;98567.25;5004817;28;20201;-75
2020/12/19 02:43:29;;;;;;;16.90;12.63;;;;;;;1.30;100.00;98556.16;4974945;28;20212;-74
2020/12/19 02:45:58;;;;;;;13.87;12.53;;;;;;;1.23;100.00;98554.84;4965164;28;20592;-74
2020/12/19 02:48:25;;;;;;;15.30;13.23;;;;;;;1.35;100.00;98559.34;4999297;28;20235;-76
2020/12/19 02:50:52;;;;;;;16.07;12.27;;;;;;;1.12;100.00;98556.31;4999875;28;20810;-73
2020/12/19 02:53:19;;;;;;;14.50;12.43;;;;;;;1.19;100.00;98551.59;4984754;28;20208;-75
2020/12/19 02:55:46;;;;;;;15.70;12.63;;;;;;;1.18;100.00;98560.34;5008357;28;20217;-72
2020/12/19 02:58:14;;;;;;;14.93;13.17;;;;;;;1.14;100.00;98559.69;4980249;28;20308;-75
2020/12/19 03:00:41;;;;;;;18.37;13.53;;;;;;;1.31;100.00;98552.59;5007024;28;20611;-72
2020/12/19 03:03:08;;;;;;;18.37;14.00;;;;;;;1.27;100.00;98548.50;4995609;28;20270;-74
2020/12/19 03:05:37;;;;;;;14.63;12.50;;;;;;;1.09;100.00;98539.97;5004736;28;20208;-75
2020/12/19 03:08:04;;;;;;;16.13;12.17;;;;;;;0.97;100.00;98534.56;4974650;28;21133;-75
2020/12/19 03:10:31;;;;;;;16.13;12.80;;;;;;;1.00;100.00;98541.38;5011189;28;20219;-74
2020/12/19 03:12:58;;;;;;;15.03;12.23;;;;;;;1.09;100.00;98553.03;4976992;28;21297;-73
2020/12/19 03:15:28;;;;;;;17.30;13.03;;;;;;;1.10;100.00;98544.28;5005598;28;20931;-74
2020/12/19 03:17:55;;;;;;;16.23;12.93;;;;;;;0.95;100.00;98544.25;4988722;28;20995;-72
2020/12/19 03:20:22;;;;;;;15.40;12.93;;;;;;;0.99;100.00;98531.88;5008126;28;20447;-73
2020/12/19 03:22:49;;;;;;;14.77;11.97;;;;;;;0.98;100.00;98530.19;4991380;28;20447;-72
2020/12/19 03:25:16;;;;;;;13.43;11.40;;;;;;;1.08;100.00;98522.63;4995493;28;20844;-74
2020/12/19 03:27:45;;;;;;;14.77;12.33;;;;;;;0.99;100.00;98519.66;4992335;28;20240;-72
2020/12/19 03:30:12;;;;;;;14.73;11.47;;;;;;;1.08;100.00;98525.25;4990397;28;20414;-74
2020/12/19 03:32:40;;;;;;;14.00;11.87;;;;;;;1.04;100.00;98535.06;4992637;28;20576;-72
2020/12/19 03:35:07;;;;;;;15.63;11.67;;;;;;;0.96;100.00;98545.09;5008628;28;20394;-74
2020/12/19 03:37:34;;;;;;;14.73;11.83;;;;;;;1.03;100.00;98543.81;5003280;28;20673;-74
2020/12/19 03:40:02;;;;;;;16.17;12.67;;;;;;;0.99;100.00;98535.31;4980769;28;20485;-73
2020/12/19 03:42:29;;;;;;;15.50;12.40;;;;;;;1.01;100.00;98543.06;5011116;28;20200;-74
2020/12/19 03:44:56;;;;;;;14.20;11.93;;;;;;;1.06;100.00;98543.63;4971393;28;20305;-72
2020/12/19 03:47:23;;;;;;;14.13;11.87;;;;;;;1.10;100.00;98539.91;5005774;28;20225;-74
2020/12/19 03:49:51;;;;;;;13.73;11.67;;;;;;;1.20;100.00;98537.59;4991878;28;20465;-72
2020/12/19 03:52:18;;;;;;;14.43;11.93;;;;;;;1.09;100.00;98530.41;5007882;28;20201;-74
2020/12/19 03:54:45;;;;;;;14.77;11.83;;;;;;;1.00;100.00;98536.16;5001469;28;20208;-72
2020/12/19 03:57:12;;;;;;;15.60;13.03;;;;;;;1.10;100.00;98529.47;4989810;28;20232;-74
2020/12/19 03:59:39;;;;;;;14.57;12.37;;;;;;;1.00;100.00;98530.94;4978215;28;20495;-72
2020/12/19 04:02:06;;;;;;;15.80;13.13;;;;;;;1.11;100.00;98531.13;4997635;28;20205;-73
2020/12/19 04:04:35;;;;;;;14.57;12.03;;;;;;;1.09;100.00;98524.31;4999281;28;20223;-73
2020/12/19 04:07:03;;;;;;;18.23;12.90;;;;;;;0.99;100.00;98535.31;5001715;28;20413;-74
2020/12/19 04:09:30;;;;;;;17.63;13.70;;;;;;;1.02;100.00;98518.63;4997447;28;20583;-73
2020/12/19 04:11:57;;;;;;;15.43;12.93;;;;;;;1.01;100.00;98507.34;4979074;28;20204;-71
2020/12/19 04:14:37;;;;;;;15.90;12.57;;;;;;;1.11;100.00;98510.25;4980343;28;20221;-72
2020/12/19 04:17:08;;;;;;;14.93;11.63;;;;;;;1.08;100.00;98509.59;4998201;28;20263;-73
2020/12/19 04:19:35;;;;;;;15.27;12.13;;;;;;;0.99;100.00;98511.81;4991278;28;20524;-74
2020/12/19 04:22:03;;;;;;;15.67;12.70;;;;;;;0.91;100.00;98507.97;5002485;28;20383;-74
2020/12/19 04:24:31;;;;;;;16.27;13.60;;;;;;;0.88;100.00;98502.94;5000139;28;20204;-73
2020/12/19 04:26:58;;;;;;;16.37;13.10;;;;;;;0.84;100.00;98510.94;4970787;28;20275;-73
2020/12/19 04:29:26;;;;;;;14.27;12.10;;;;;;;0.95;100.00;98504.28;4974019;28;20216;-73
2020/12/19 04:31:53;;;;;;;15.23;12.00;;;;;;;0.98;100.00;98509.31;4995911;28;20670;-72
2020/12/19 04:34:21;;;;;;;16.40;12.20;;;;;;;0.98;100.00;98515.34;5004704;28;20209;-73
2020/12/19 04:36:48;;;;;;;14.90;12.77;;;;;;;0.92;100.00;98518.34;4990964;28;20653;-71
2020/12/19 04:39:17;;;;;;;15.77;13.20;;;;;;;0.97;100.00;98518.91;5000833;28;20663;-73
2020/12/19 04:41:44;;;;;;;15.40;11.70;;;;;;;0.98;100.00;98510.13;5001507;28;20204;-72
2020/12/19 04:44:11;;;;;;;12.87;11.37;;;;;;;0.90;100.00;98506.28;4948904;28;20968;-74
2020/12/19 04:46:41;;;;;;;16.60;13.07;;;;;;;0.98;100.00;98504.09;5002324;28;20449;-72
2020/12/19 04:49:09;;;;;;;14.17;12.33;;;;;;;0.97;100.00;98505.84;5003575;28;20324;-72
2020/12/19 04:51:36;;;;;;;15.60;12.40;;;;;;;0.89;100.00;98502.00;4997272;28;20428;-73
2020/12/19 04:54:04;;;;;;;14.87;11.67;;;;;;;0.98;100.00;98497.09;4988131;28;20554;-74
2020/12/19 04:56:32;;;;;;;13.87;11.90;;;;;;;1.00;100.00;98504.84;5003774;28;20215;-73
2020/12/19 04:59:02;;;;;;;15.93;12.70;;;;;;;0.96;100.00;98492.91;4974283;28;20752;-72
2020/12/19 05:01:29;;;;;;;14.70;12.40;;;;;;;0.88;100.00;98492.50;4973416;28;20212;-74
2020/12/19 05:03:56;;;;;;;13.97;11.40;;;;;;;0.93;100.00;98491.31;4996481;28;20200;-72
2020/12/19 05:06:24;;;;;;;13.77;11.73;;;;;;;0.95;100.00;98488.63;4994871;28;21206;-73
2020/12/19 05:08:51;;;;;;;17.87;13.20;;;;;;;1.04;100.00;98492.44;5003054;28;20216;-71
2020/12/19 05:11:19;;;;;;;17.73;13.10;;;;;;;1.06;100.00;98487.97;5001733;28;20207;-73
2020/12/19 05:13:47;;;;;;;16.53;13.17;;;;;;;1.05;100.00;98479.31;4987027;28;20307;-71
2020/12/19 05:16:16;;;;;;;16.27;13.00;;;;;;;0.97;100.00;98487.56;4967831;28;20311;-73
2020/12/19 05:18:44;;;;;;;17.73;14.07;;;;;;;0.91;100.00;98485.34;5006330;28;20235;-72
2020/12/19 05:21:13;;;;;;;18.33;14.27;;;;;;;1.00;100.00;98490.00;4999386;28;20322;-73
2020/12/19 05:23:41;;;;;;;17.67;13.00;;;;;;;0.95;100.00;98494.66;4994505;28;20219;-72
2020/12/19 05:26:12;;;;;;;15.07;13.53;;;;;;;0.91;100.00;98500.13;5006778;28;20200;-73
2020/12/19 05:28:41;;;;;;;18.83;13.47;;;;;;;0.93;100.00;98506.97;4998684;28;20221;-72
2020/12/19 05:31:09;;;;;;;16.47;13.00;;;;;;;1.22;100.00;98507.00;4983871;28;20791;-74
2020/12/19 05:33:37;;;;;;;17.67;13.57;;;;;;;0.96;100.00;98512.00;4973561;28;20212;-74
2020/12/19 05:36:05;;;;;;;15.03;12.60;;;;;;;1.14;100.00;98515.28;5001642;28;20224;-74
2020/12/19 05:38:37;;;;;;;14.97;12.13;;;;;;;1.10;100.00;98516.41;4984211;28;20825;-73
2020/12/19 05:41:05;;;;;;;15.63;12.20;;;;;;;1.06;100.00;98516.66;4992770;28;20623;-73
2020/12/19 05:43:32;;;;;;;13.73;11.07;;;;;;;1.11;100.00;98515.47;4992048;28;20891;-72
2020/12/19 05:45:59;;;;;;;13.37;11.63;;;;;;;1.08;100.00;98520.88;4984927;28;20208;-74
2020/12/19 05:48:27;;;;;;;14.70;11.50;;;;;;;1.07;100.00;98513.13;4957762;28;20942;-72
2020/12/19 05:50:54;;;;;;;15.57;12.07;;;;;;;0.96;100.00;98517.22;4998360;28;20212;-72
2020/12/19 05:53:21;;;;;;;14.17;12.07;;;;;;;1.00;100.00;98513.50;4988115;28;20240;-72
2020/12/19 05:55:48;;;;;;;14.67;11.17;;;;;;;1.01;100.00;98520.41;4985757;28;20625;-72
2020/12/19 05:58:16;;;;;;;13.57;10.87;;;;;;;1.00;100.00;98515.28;4998994;28;20610;-74
2020/12/19 06:00:43;;;;;;;13.50;11.63;;;;;;;1.05;100.00;98510.63;5001896;28;20247;-73
2020/12/19 06:03:11;;;;;;;14.57;11.83;;;;;;;1.00;100.00;98512.66;4944294;28;20583;-74
2020/12/19 06:05:40;;;;;;;16.40;12.77;;;;;;;0.89;100.00;98512.44;4991262;28;20382;-72
2020/12/19 06:08:19;;;;;;;11.90;10.67;;;;;;;0.88;100.00;98519.44;4985605;28;20307;-74
2020/12/19 06:10:47;;;;;;;15.37;12.63;;;;;;;0.95;100.00;98522.53;4988393;28;20243;-73
2020/12/19 06:13:16;;;;;;;15.50;11.67;;;;;;;1.03;100.00;98522.06;4994050;28;20255;-72
2020/12/19 06:15:53;;;;;;;14.70;12.17;;;;;;;1.04;100.00;98519.38;4998153;28;20209;-72
2020/12/19 06:18:33;;;;;;;12.87;11.03;;;;;;;1.05;100.00;98521.06;4950060;28;20239;-72
2020/12/19 06:21:07;;;;;;;12.57;11.20;;;;;;;1.10;100.00;98513.81;4995706;28;20747;-73
2020/12/19 06:23:34;;;;;;;11.60;10.40;;;;;;;0.99;100.00;98518.81;4977126;28;20395;-72
2020/12/19 06:26:03;;;;;;;12.83;11.17;;;;;;;1.03;100.00;98514.25;4989106;28;20347;-72
2020/12/19 06:28:54;;;;;;;13.17;11.77;;;;;;;0.86;100.00;98521.31;4996341;28;20251;-72
2020/12/19 06:31:22;;;;;;;13.87;10.50;;;;;;;0.90;100.00;98524.56;4968987;28;20219;-73
2020/12/19 06:33:50;;;;;;;15.23;11.87;;;;;;;1.09;100.00;98519.09;4957382;28;20964;-72
2020/12/19 06:36:21;;;;;;;11.53;10.17;;;;;;;1.11;100.00;98519.84;4978275;28;20208;-72
2020/12/19 06:38:50;;;;;;;13.47;10.73;;;;;;;0.90;100.00;98521.94;4998012;28;20602;-73
2020/12/19 06:41:40;;;;;;;13.47;11.43;;;;;;;0.86;100.00;98529.97;4970319;28;20588;-73
2020/12/19 06:44:09;;;;;;;15.47;11.03;;;;;;;0.86;100.00;98535.19;4992569;28;20212;-72
2020/12/19 06:46:36;;;;;;;13.47;12.00;;;;;;;0.79;100.00;98531.25;4994281;28;20638;-71
2020/12/19 06:49:36;;;;;;;12.83;10.83;;;;;;;0.78;100.00;98534.78;4972805;28;20215;-72
2020/12/19 06:52:07;;;;;;;14.83;10.73;;;;;;;0.91;100.00;98531.47;4973802;28;20200;-68
2020/12/19 06:54:35;;;;;;;13.37;10.13;;;;;;;1.09;100.00;98529.53;4980861;28;20213;-69
2020/12/19 06:57:04;;;;;;;12.40;10.60;;;;;;;1.17;100.00;98529.94;4986065;28;20228;-71
2020/12/19 06:59:31;;;;;;;12.30;10.77;;;;;;;1.09;100.00;98534.75;4989508;28;20769;-73
2020/12/19 07:02:15;;;;;;;10.70;9.63;;;;;;;1.04;100.00;98544.63;4988864;28;20227;-73
2020/12/19 07:04:42;;;;;;;11.00;9.90;;;;;;;1.05;100.00;98544.56;4977056;28;20224;-73
2020/12/19 07:07:12;;;;;;;11.13;10.03;;;;;;;1.03;100.00;98540.34;4991096;28;20625;-72
2020/12/19 07:09:40;;;;;;;10.20;9.20;;;;;;;1.04;100.00;98542.03;4998263;28;20201;-71
2020/12/19 07:12:31;;;;;;;9.83;8.70;;;;;;;0.88;100.00;98545.53;4982633;28;20205;-73
2020/12/19 07:14:58;;;;;;;11.53;8.83;;;;;;;1.07;100.00;98555.75;4997318;28;20213;-73
2020/12/19 07:17:25;;;;;;;11.17;10.00;;;;;;;1.09;100.00;98561.72;4997601;28;20224;-73
2020/12/19 07:19:59;;;;;;;12.77;9.93;;;;;;;1.01;100.00;98549.09;4945034;28;20224;-73
2020/12/19 07:22:27;;;;;;;10.20;9.23;;;;;;;0.76;100.00;98554.91;4995438;28;20692;-73
2020/12/19 07:24:55;;;;;;;12.40;9.97;;;;;;;0.79;100.00;98551.31;4998769;28;20204;-72
2020/12/19 07:27:23;;;;;;;11.17;10.03;;;;;;;0.65;100.00;98554.69;4972591;28;20583;-72
2020/12/19 07:29:50;;;;;;;10.77;9.33;;;;;;;0.75;100.00;98557.59;4994658;28;20691;-74
2020/12/19 07:32:18;;;;;;;11.33;9.70;;;;;;;0.55;100.00;98559.59;4999631;28;20237;-71
2020/12/19 07:34:45;;;;;;;11.57;9.50;;;;;;;0.76;100.00;98560.13;4978621;28;20212;-72
2020/12/19 07:37:12;;;;;;;8.90;8.07;;;;;;;0.81;100.00;98571.13;4961536;28;20236;-72
2020/12/19 07:39:40;;;;;;;9.87;8.97;;;;;;;0.82;100.00;98572.81;4998227;28;20227;-73
2020/12/19 07:42:08;;;;;;;10.53;9.03;;;;;;;0.68;100.00;98570.16;4972717;28;20213;-72
2020/12/19 07:44:36;;;;;;;9.13;8.13;;;;;;;0.63;100.00;98564.38;4998441;28;20303;-71
2020/12/19 07:47:06;;;;;;;10.07;9.07;;;;;;;0.68;100.00;98571.00;5001124;28;20256;-73
2020/12/19 07:49:35;;;;;;;10.37;9.30;;;;;;;0.69;100.00;98574.47;4967670;28;20422;-74
2020/12/19 07:52:13;;;;;;;9.47;8.57;;;;;;;0.63;100.00;98567.00;4970209;28;20213;-72
2020/12/19 07:54:52;;;;;;;11.20;10.03;;;;;;;0.64;100.00;98566.88;5004708;28;20204;-72
2020/12/19 07:57:19;;;;;;;10.37;9.27;;;;;;;0.62;100.00;98566.13;4975316;28;20426;-72
2020/12/19 07:59:47;;;;;;;10.33;9.33;;;;;;;0.67;100.00;98568.50;4998824;28;20713;-73
2020/12/19 08:02:15;;;;;;;10.63;9.53;;;;;;;0.69;100.00;98566.63;4989596;28;20506;-74
2020/12/19 08:04:48;;;;;;;9.60;8.63;;;;;;;0.83;100.00;98574.50;4995339;28;20223;-73
2020/12/19 08:07:18;;;;;;;10.90;9.73;;;;;;;0.68;100.00;98571.00;4949884;28;20510;-74
2020/12/19 08:09:47;;;;;;;10.93;9.47;;;;;;;0.81;100.00;98571.13;4989719;28;20632;-72
2020/12/19 08:12:14;;;;;;;10.33;8.93;;;;;;;0.67;100.00;98566.72;4986540;28;20693;-73
2020/12/19 08:14:42;;;;;;;11.33;9.33;;;;;;;0.71;100.00;98573.44;4990440;28;20212;-72
2020/12/19 08:17:13;;;;;;;10.10;9.10;;;;;;;0.95;100.00;98569.53;5006013;28;20225;-72
2020/12/19 08:19:42;;;;;;;11.03;9.97;;;;;;;0.76;100.00;98567.09;4994058;28;20231;-72
2020/12/19 08:22:10;;;;;;;11.67;10.13;;;;;;;0.97;100.00;98567.66;4954142;28;20220;-73
2020/12/19 08:24:37;;;;;;;10.40;9.37;;;;;;;0.82;100.00;98572.81;4985700;28;20205;-72
2020/12/19 08:27:32;;;;;;;10.00;8.90;;;;;;;0.77;100.00;98569.63;4991450;28;20456;-73
2020/12/19 08:30:13;;;;;;;11.07;9.60;;;;;;;0.89;100.00;98578.53;4990147;28;20205;-72
2020/12/19 08:32:43;;;;;;;10.50;9.47;;;;;;;0.98;100.00;98567.56;4983211;28;20232;-72
2020/12/19 08:35:11;;;;;;;10.53;9.33;;;;;;;1.06;100.00;98572.34;4997880;28;20851;-71
2020/12/19 08:37:38;;;;;;;10.80;9.70;;;;;;;0.93;100.00;98577.44;4945014;28;20259;-73
2020/12/19 08:40:14;;;;;;;10.70;9.60;;;;;;;1.03;100.00;98574.28;4974746;28;20220;-72
2020/12/19 08:42:44;;;;;;;10.27;9.27;;;;;;;1.01;100.00;98572.59;4992779;28;20208;-72
2020/12/19 08:45:22;;;;;;;10.37;8.97;;;;;;;0.92;100.00;98565.31;4988212;28;20776;-73
2020/12/19 08:47:52;;;;;;;10.77;9.50;;;;;;;1.12;100.00;98563.28;4983808;28;20516;-73
2020/12/19 08:50:27;;;;;;;11.57;9.03;;;;;;;1.57;100.00;98569.34;4986995;28;20308;-73
2020/12/19 08:53:08;;;;;;;10.80;9.70;;;;;;;1.46;100.00;98570.91;4976167;28;20708;-71
2020/12/19 08:55:36;;;;;;;11.10;10.00;;;;;;;1.32;100.00;98571.72;4953363;28;20320;-71
2020/12/19 08:58:04;;;;;;;9.67;8.77;;;;;;;1.40;100.00;98577.34;4999857;28;20229;-70
2020/12/19 09:00:34;;;;;;;9.70;8.70;;;;;;;1.18;100.00;98573.41;4970954;28;20224;-73
2020/12/19 09:03:08;;;;;;;9.70;8.70;;;;;;;1.16;100.00;98585.72;4990400;28;20813;-72
2020/12/19 09:05:37;;;;;;;9.50;8.60;;;;;;;1.09;100.00;98589.56;4990759;28;20764;-73
2020/12/19 09:08:04;;;;;;;9.60;8.37;;;;;;;1.34;100.00;98585.53;4978644;28;20228;-72
2020/12/19 09:10:32;;;;;;;9.57;8.57;;;;;;;1.22;100.00;98587.94;4963536;28;20224;-71
2020/12/19 09:13:21;;;;;;;10.20;9.30;;;;;;;1.35;100.00;98598.53;4996291;28;20593;-71
2020/12/19 09:15:49;;;;;;;9.40;8.40;;;;;;;1.22;100.00;98600.16;4972187;28;20327;-71
2020/12/19 09:18:21;;;;;;;8.33;7.53;;;;;;;1.17;100.00;98602.19;5002754;28;20686;-72
2020/12/19 09:20:53;;;;;;;9.03;8.23;;;;;;;1.43;100.00;98598.91;4998959;28;20318;-72
2020/12/19 09:23:20;;;;;;;9.23;8.30;;;;;;;1.29;100.00;98597.09;4970365;28;20208;-72
2020/12/19 09:25:48;;;;;;;8.93;8.03;;;;;;;1.28;100.00;98600.66;4965525;28;20217;-73
2020/12/19 09:28:16;;;;;;;10.00;8.77;;;;;;;1.27;100.00;98608.56;4995836;28;20239;-72
2020/12/19 09:30:43;;;;;;;8.67;7.77;;;;;;;1.37;100.00;98604.50;4986458;28;20377;-71
2020/12/19 09:33:11;;;;;;;9.67;8.67;;;;;;;1.47;100.00;98603.94;4998962;28;20221;-71
2020/12/19 09:35:38;;;;;;;9.67;8.67;;;;;;;1.35;100.00;98605.50;4994790;28;20422;-70
2020/12/19 09:38:05;;;;;;;8.50;7.77;;;;;;;1.33;100.00;98609.97;4986184;28;20228;-71
2020/12/19 09:40:32;;;;;;;8.93;8.00;;;;;;;1.39;100.00;98615.69;4952394;28;20676;-71
2020/12/19 09:42:59;;;;;;;8.23;7.43;;;;;;;1.44;100.00;98610.16;4987697;28;20494;-69
2020/12/19 09:45:28;;;;;;;8.03;7.33;;;;;;;1.37;100.00;98608.84;4992362;28;20845;-71
2020/12/19 09:47:56;;;;;;;8.60;7.80;;;;;;;1.64;100.00;98616.81;4993457;28;20224;-72
2020/12/19 09:50:23;;;;;;;8.17;7.37;;;;;;;1.39;100.00;98613.06;5003586;28;20352;-71
2020/12/19 09:52:51;;;;;;;8.30;7.50;;;;;;;1.26;100.00;98606.88;5003614;28;20277;-71
2020/12/19 09:55:18;;;;;;;9.20;8.40;;;;;;;1.19;100.00;98611.63;4965106;28;20548;-71
2020/12/19 09:57:45;;;;;;;9.27;8.27;;;;;;;1.37;100.00;98614.94;4972524;28;20684;-72
2020/12/19 10:00:13;;;;;;;9.60;8.60;;;;;;;1.43;100.00;98601.50;5004133;28;20224;-71
2020/12/19 10:02:42;;;;;;;10.00;9.00;;;;;;;1.48;100.00;98605.63;4986975;28;20247;-72
2020/12/19 10:05:10;;;;;;;10.80;9.80;;;;;;;1.50;100.00;98594.13;5005682;28;20219;-71
2020/12/19 10:07:38;;;;;;;9.20;8.40;;;;;;;1.59;100.00;98603.19;5006513;28;20396;-71
2020/12/19 10:10:06;;;;;;;7.60;6.77;;;;;;;1.53;100.00;98593.13;4980227;28;20224;-72
2020/12/19 10:12:33;;;;;;;8.20;7.40;;;;;;;1.54;100.00;98586.97;4967519;28;20504;-72
2020/12/19 10:15:00;;;;;;;7.83;7.13;;;;;;;1.52;100.00;98589.69;4988181;28;20215;-73
2020/12/19 10:17:27;;;;;;;7.90;7.17;;;;;;;1.28;100.00;98586.72;4980299;28;20232;-73
2020/12/19 10:19:55;;;;;;;9.13;8.33;;;;;;;1.56;100.00;98585.94;4991579;28;20583;-73
2020/12/19 10:22:22;;;;;;;8.23;7.43;;;;;;;1.61;100.00;98585.66;4991689;28;20224;-72
2020/12/19 10:24:49;;;;;;;8.00;7.30;;;;;;;1.67;100.00;98594.91;5007067;28;20265;-79
2020/12/19 10:27:16;;;;;;;7.77;7.07;;;;;;;1.78;100.00;98583.81;4933718;28;20884;-71
2020/12/19 10:29:43;;;;;;;8.30;7.50;;;;;;;1.68;100.00;98586.97;4986387;28;20213;-71
2020/12/19 10:32:12;;;;;;;7.37;6.30;;;;;;;1.54;100.00;98590.44;4982994;28;20209;-72
2020/12/19 10:34:40;;;;;;;7.77;7.07;;;;;;;1.71;100.00;98586.81;4987987;28;20244;-72
2020/12/19 10:37:08;;;;;;;7.67;7.07;;;;;;;1.64;100.00;98588.06;4976324;28;20221;-75
2020/12/19 10:39:35;;;;;;;8.57;7.77;;;;;;;1.61;100.00;98577.81;4986797;28;20487;-73
2020/12/19 10:42:02;;;;;;;7.23;6.57;;;;;;;1.68;100.00;98579.13;4982191;28;20488;-72
2020/12/19 10:44:29;;;;;;;7.83;6.90;;;;;;;1.75;100.00;98582.22;4973263;28;20219;-71
2020/12/19 10:46:58;;;;;;;8.20;7.40;;;;;;;1.73;100.00;98576.25;4968329;28;20502;-73
2020/12/19 10:49:25;;;;;;;8.77;7.87;;;;;;;1.83;100.00;98577.34;4973526;28;20366;-73
2020/12/19 10:51:52;;;;;;;9.23;7.33;;;;;;;2.01;100.00;98569.31;4980970;28;20642;-72
2020/12/19 10:54:20;;;;;;;8.23;7.43;;;;;;;1.94;100.00;98578.47;4983921;28;20209;-74
2020/12/19 10:56:59;;;;;;;8.13;7.33;;;;;;;1.79;100.00;98572.41;4963747;28;20335;-73
2020/12/19 10:59:27;;;;;;;7.80;7.10;;;;;;;1.97;100.00;98566.03;4965471;28;20267;-70
2020/12/19 11:01:54;;;;;;;7.90;7.20;;;;;;;1.73;100.00;98564.03;4982768;28;20219;-73
2020/12/19 11:04:21;;;;;;;8.53;7.57;;;;;;;1.98;100.00;98557.25;5002565;28;20391;-73
2020/12/19 11:06:48;;;;;;;7.40;6.80;;;;;;;2.09;100.00;98553.16;4985090;28;20216;-71
2020/12/19 11:09:16;;;;;;;7.97;7.27;;;;;;;1.69;100.00;98546.81;4971705;28;20438;-72
2020/12/19 11:11:50;;;;;;;8.00;7.20;;;;;;;1.76;100.00;98538.63;4994569;28;20230;-72
2020/12/19 11:14:18;;;;;;;7.03;6.43;;;;;;;1.79;100.00;98541.06;4951050;28;20207;-74
2020/12/19 11:16:45;;;;;;;7.80;7.10;;;;;;;1.70;100.00;98552.91;4986334;28;20213;-73
2020/12/19 11:19:13;;;;;;;7.43;6.73;;;;;;;1.41;100.00;98545.91;4998377;28;20602;-74
2020/12/19 11:21:43;;;;;;;8.30;6.43;;;;;;;1.40;100.00;98546.00;4991542;28;20217;-73
2020/12/19 11:24:12;;;;;;;7.77;6.93;;;;;;;1.55;100.00;98546.84;4984685;28;20431;-74
2020/12/19 11:26:40;;;;;;;8.43;7.63;;;;;;;1.77;100.00;98542.94;5003551;28;20324;-72
2020/12/19 11:29:09;;;;;;;7.83;7.07;;;;;;;1.66;100.00;98541.78;4949188;28;22033;-71